createdAt,value
2023-01-19T00:08:15.091Z,94.43
2023-01-19T00:38:11.909Z,94.21
2023-01-19T02:38:10.484Z,94.4
2023-01-19T03:38:04.320Z,94.43
2023-01-19T04:08:06.024Z,94.62
2023-01-19T04:38:13.108Z,95
2023-01-19T05:08:11.207Z,95.14
2023-01-19T05:38:09.048Z,95.08
2023-01-19T06:08:12.645Z,94.8
2023-01-19T07:08:03.763Z,94.98
2023-01-19T07:38:09.982Z,94.74
2023-01-19T08:08:01.583Z,95
2023-01-19T08:38:05.031Z,93.58
2023-01-19T09:08:06.622Z,91.95
2023-01-19T09:38:06.655Z,90.84
2023-01-19T10:08:12.599Z,89.96
2023-01-19T10:38:01.781Z,87.41
2023-01-19T11:08:05.605Z,84.61
2023-01-19T11:38:09.172Z,83.76
2023-01-19T12:08:01.728Z,81.68
2023-01-19T12:38:00.463Z,79.35
2023-01-19T13:07:58.388Z,80.02
2023-01-19T13:38:16.085Z,79.36
2023-01-19T14:08:15.090Z,79.1
2023-01-19T14:38:01.846Z,79.24
2023-01-19T15:08:17.938Z,81.54
2023-01-19T15:38:07.055Z,83.43
2023-01-19T17:38:05.805Z,84.84
2023-01-19T18:08:03.373Z,85.48
2023-01-19T18:38:13.240Z,85.4
2023-01-19T19:07:55.199Z,84.57
2023-01-19T19:38:00.750Z,85.44
2023-01-19T20:08:00.660Z,85.71
2023-01-19T20:38:07.520Z,86
2023-01-19T21:08:03.357Z,86.72
2023-01-19T21:38:03.280Z,87.42
2023-01-19T22:08:00.764Z,87.88
2023-01-19T22:38:02.360Z,88.99
2023-01-19T23:07:58.160Z,89.57
2023-01-19T23:38:22.316Z,90.24
